Radiance Of The Seas — C6SE7 — position and weather

sailwx.info

Track history (hours):
 
Tides and Currents Weather Stations Pressure Air Temp Water Temp Dewpoint Dewpoint Depression Visibility Wind Speed Wind Dir Waves Ship Positions

Radiance Of The Seas

Operator: Royal Caribbean Cruises Ltd

Last reported at 2018-Jun-21 09:00 UTC. Time now 2018-Jun-21 16:27 UTC.
Position N 58°00' W 137°00'.

Type: Passenger vessel. MMSI: 311319000.

Wind from 180 at 12 knots

Barometer 1012.3 mb
Air temperature 10.0 ° C
Visibility: greater than 2.2 NM
Water temperature 11.0 ° C

Date/timePositionNaut miles runAvg speedWind from/ knotsBaromVisibWave heightAir tempDewpointWater temp
2018-Jun-21 09:00N 58°00' W 137°00'3217.3 180 / 121012.3 2.2 10.0 11.0
2018-Jun-21 07:07N 58°19' W 136°10'222.3
2018-Jun-21 07:00N 58°20' W 136°06'1020.8
2018-Jun-21 06:30N 58°18' W 135°46'1020.2
2018-Jun-21 06:00N 58°15' W 135°28'28 1.3
2018-Jun-20 08:00N 58°12' W 134°36'15 0.7 330 / 81014.310.8 16.0 12.0
2018-Jun-19 09:00N 58°24' W 134°54'127 5.3 180 / 131020.310.8 14.0 11.0
2018-Jun-18 09:00N 56°18' W 134°24'27 8.9 360 / 51022.3 2.2 11.0 11.0
2018-Jun-18 06:00N 56°18' W 133°36'119 6.0 190 / 151022.3 0.1 9.0 10.0
2018-Jun-17 10:11N 54°42' W 131°33'314.9
2018-Jun-17 10:00N 54°40' W 131°30'815.4
2018-Jun-17 09:30N 54°33' W 131°23'815.6
2018-Jun-17 09:00N 54°27' W 131°15'815.8
2018-Jun-17 08:30N 54°20' W 131°08'815.1
2018-Jun-17 08:00N 54°13' W 131°04'815.4
2018-Jun-17 07:30N 54°06' W 131°08'815.6
2018-Jun-17 07:01N 53°58' W 131°11'4224.1
2018-Jun-17 07:00N 54°00' W 131°06'1021.3 290 / 291022.310.8 11.0 11.0
2018-Jun-17 06:31N 53°50' W 131°12'815.4
2018-Jun-17 06:00N 53°43' W 131°10'816.3
2018-Jun-17 05:31N 53°35' W 131°07'816.2
2018-Jun-17 05:00N 53°27' W 131°04'816.0
2018-Jun-17 04:30N 53°19' W 130°59'816.2
2018-Jun-17 04:00N 53°12' W 130°53'816.1
2018-Jun-17 03:31N 53°05' W 130°47'815.9
2018-Jun-17 03:00N 52°58' W 130°42'815.5
2018-Jun-17 02:30N 52°51' W 130°36'815.9
2018-Jun-17 02:00N 52°44' W 130°30'815.9
2018-Jun-17 01:30N 52°37' W 130°24'816.0
2018-Jun-17 01:00N 52°30' W 130°18'816.1
2018-Jun-17 00:31N 52°23' W 130°12'816.1
2018-Jun-17 00:00N 52°15' W 130°05'816.2
2018-Jun-16 23:30N 52°08' W 129°59'816.0
2018-Jun-16 23:00N 52°01' W 129°54'815.9
2018-Jun-16 22:30N 51°54' W 129°47'815.8
2018-Jun-16 22:00N 51°48' W 129°38'816.0
2018-Jun-16 21:31N 51°44' W 129°28'815.9
2018-Jun-16 21:00N 51°39' W 129°17'5320.2
2018-Jun-16 21:00N 51°42' W 129°24'1326.4 330 / 301021.310.8 11.0 11.0
2018-Jun-16 20:30N 51°35' W 129°07'815.4
2018-Jun-16 20:01N 51°30' W 128°57'816.1
2018-Jun-16 19:30N 51°25' W 128°47'815.4
2018-Jun-16 19:00N 51°20' W 128°38'815.5
2018-Jun-16 18:31N 51°16' W 128°27'815.7
2018-Jun-16 18:01N 51°11' W 128°17'816.0
2018-Jun-16 17:30N 51°07' W 128°07'815.7
2018-Jun-16 17:00N 51°03' W 127°56'714.4
2018-Jun-16 16:31N 50°59' W 127°46'510.9
2018-Jun-16 16:00N 50°55' W 127°40'715.0
2018-Jun-16 15:30N 50°51' W 127°30'815.7
2018-Jun-16 15:00N 50°48' W 127°19'815.7
2018-Jun-16 14:30N 50°45' W 127°07'815.8
2018-Jun-16 14:00N 50°42' W 126°56'6214.3
2018-Jun-16 09:41N 50°19' W 125°25'417.5
2018-Jun-16 09:26N 50°15' W 125°23'614.9
2018-Jun-16 09:00N 50°09' W 125°21'612.1
2018-Jun-16 08:30N 50°04' W 125°15'713.5
2018-Jun-16 08:00N 49°58' W 125°10'816.7
2018-Jun-16 07:30N 49°52' W 125°01'816.8
2018-Jun-16 07:00N 49°46' W 124°52'2184.0
2018-Jun-16 07:00N 49°48' W 124°54'1021.3 300 / 251013.310.8 14.0 15.0
2018-Jun-16 06:30N 49°40' W 124°43'916.9
2018-Jun-16 06:00N 49°34' W 124°34'917.2
2018-Jun-16 05:30N 49°28' W 124°25'3016.7
2018-Jun-16 03:41N 49°20' W 123°40'516.9
2018-Jun-16 03:23N 49°19' W 123°33'717.4
2018-Jun-16 02:59N 49°19' W 123°22'816.7
2018-Jun-16 02:30N 49°19' W 123°10'3 5.1
2018-Jun-16 01:59N 49°17' W 123°06'0 0.0
2018-Jun-16 01:29N 49°17' W 123°06'0 0.0
2018-Jun-16 00:59N 49°17' W 123°06'0 0.0
2018-Jun-16 00:29N 49°17' W 123°06'0 0.0
2018-Jun-15 23:59N 49°17' W 123°06'0 0.0
2018-Jun-15 23:29N 49°17' W 123°06'0 0.0
2018-Jun-15 22:59N 49°17' W 123°06'0 0.0
2018-Jun-15 22:29N 49°17' W 123°06'0 0.0
2018-Jun-15 21:59N 49°17' W 123°06'0 0.0
2018-Jun-15 21:29N 49°17' W 123°06'0 0.0
2018-Jun-15 20:59N 49°17' W 123°06'0 0.0
2018-Jun-15 20:29N 49°17' W 123°06'0 0.0
2018-Jun-15 19:59N 49°17' W 123°06'0 0.0
2018-Jun-15 19:29N 49°17' W 123°06'0 0.0
2018-Jun-15 18:59N 49°17' W 123°06'0 0.0
2018-Jun-15 18:29N 49°17' W 123°06'0 0.0
2018-Jun-15 17:59N 49°17' W 123°06'0 0.0
2018-Jun-15 17:29N 49°17' W 123°06'0 0.0
2018-Jun-15 16:59N 49°17' W 123°06'0 0.0
2018-Jun-15 16:29N 49°17' W 123°06'0 0.0
2018-Jun-15 15:59N 49°17' W 123°06'0 0.0
2018-Jun-15 15:29N 49°17' W 123°06'0 0.0
2018-Jun-15 14:59N 49°17' W 123°06'0 0.0
2018-Jun-15 14:29N 49°17' W 123°06'0 0.0
2018-Jun-15 14:00N 49°17' W 123°06'0 0.4
2018-Jun-15 13:30N 49°17' W 123°06'2 4.4
2018-Jun-15 12:59N 49°19' W 123°09'3 6.4
2018-Jun-15 12:29N 49°19' W 123°14'20 7.1
2018-Jun-15 09:41N 49°19' W 123°44'610.7
2018-Jun-15 09:08N 49°21' W 123°53'21 9.6
2018-Jun-15 07:00N 49°24' W 124°24'1017.6 230 / 101015.310.8 14.0 14.0
2018-Jun-15 06:25N 49°32' W 124°33'410.8
2018-Jun-15 06:00N 49°36' W 124°38'510.4
2018-Jun-15 05:30N 49°39' W 124°43'510.4
2018-Jun-15 05:00N 49°43' W 124°48'510.7
2018-Jun-15 04:30N 49°47' W 124°54'611.4
2018-Jun-15 04:00N 49°52' W 124°60'510.9
2018-Jun-15 03:30N 49°55' W 125°06'510.7
2018-Jun-15 03:00N 49°59' W 125°12'611.4
2018-Jun-15 02:30N 50°04' W 125°15'612.6
2018-Jun-15 02:00N 50°09' W 125°22'1017.2
2018-Jun-15 01:26N 50°19' W 125°25'5617.0
2018-Jun-14 22:07N 50°39' W 126°48'318.1
2018-Jun-14 21:58N 50°40' W 126°51'919.2
2018-Jun-14 21:30N 50°44' W 127°04'1019.2
2018-Jun-14 21:00N 50°47' W 127°18'1018.9
2018-Jun-14 20:30N 50°51' W 127°32'1019.3
2018-Jun-14 20:00N 50°57' W 127°44'6378.4
2018-Jun-14 20:00N 50°54' W 127°36'1224.0 190 / 61017.3 5.4 11.0 11.0
2018-Jun-14 19:30N 51°00' W 127°52'1020.2
2018-Jun-14 19:00N 51°05' W 128°05'4306.8
2018-Jun-14 19:00N 51°06' W 128°12'713.8 110 / 101017.310.8 11.0 12.6
2018-Jun-14 18:31N 51°11' W 128°18'918.1
2018-Jun-14 18:00N 51°17' W 128°29'917.4
2018-Jun-14 17:31N 51°23' W 128°40'816.5
2018-Jun-14 17:01N 51°28' W 128°51'816.8
2018-Jun-14 16:31N 51°33' W 129°01'917.2
2018-Jun-14 16:00N 51°37' W 129°13'12518.2
2018-Jun-14 09:08N 53°24' W 131°03'855.8
2018-Jun-14 09:00N 53°18' W 130°54'10694.0 170 / 131017.010.8 10.0 11.0
2018-Jun-14 08:59N 53°26' W 131°04'918.5
2018-Jun-14 08:30N 53°35' W 131°07'918.4
2018-Jun-14 08:01N 53°44' W 131°10'918.2
2018-Jun-14 07:30N 53°53' W 131°13'918.7
2018-Jun-14 07:00N 54°02' W 131°10'1020.1
2018-Jun-14 06:30N 54°11' W 131°04'1019.5
2018-Jun-14 06:00N 54°21' W 131°08'1120.4
2018-Jun-14 05:29N 54°30' W 131°19'1610.8
2018-Jun-14 04:00N 54°42' W 131°36'113 5.6 170 / 381014.7 2.2 10.0 12.2
2018-Jun-13 08:00N 56°06' W 133°48'6713.4 090 / 201017.0 5.4 11.0 11.0
2018-Jun-13 03:00N 57°06' W 134°42'67 5.0 200 / 51012.010.8 11.0 10.0
2018-Jun-12 13:39N 58°09' W 135°26'1 5.7
2018-Jun-12 13:27N 58°09' W 135°24'34 7.7
2018-Jun-12 09:00N 58°42' W 135°06'   250 / 51021.0 5.4 11.0 11.0
Track history (hours):
 
Tides and Currents Weather Stations Pressure Air Temp Water Temp Dewpoint Dewpoint Depression Visibility Wind Speed Wind Dir Waves Ship Positions

Radiance Of The Seas

Operator: Royal Caribbean Cruises Ltd

Last reported at 2018-Jun-21 09:00 UTC. Time now 2018-Jun-21 16:27 UTC.
Position N 58°00' W 137°00'.

Type: Passenger vessel. MMSI: 311319000.

Wind from 180 at 12 knots

Barometer 1012.3 mb
Air temperature 10.0 ° C
Visibility: greater than 2.2 NM
Water temperature 11.0 ° C

Date/timePositionNaut miles runAvg speedWind from/ knotsBaromVisibWave heightAir tempDewpointWater temp
2018-Jun-21 09:00N 58°00' W 137°00'3217.3 180 / 121012.3 2.2 10.0 11.0
2018-Jun-21 07:07N 58°19' W 136°10'222.3
2018-Jun-21 07:00N 58°20' W 136°06'1020.8
2018-Jun-21 06:30N 58°18' W 135°46'1020.2
2018-Jun-21 06:00N 58°15' W 135°28'28 1.3
2018-Jun-20 08:00N 58°12' W 134°36'15 0.7 330 / 81014.310.8 16.0 12.0
2018-Jun-19 09:00N 58°24' W 134°54'127 5.3 180 / 131020.310.8 14.0 11.0
2018-Jun-18 09:00N 56°18' W 134°24'27 8.9 360 / 51022.3 2.2 11.0 11.0
2018-Jun-18 06:00N 56°18' W 133°36'119 6.0 190 / 151022.3 0.1 9.0 10.0
2018-Jun-17 10:11N 54°42' W 131°33'314.9
2018-Jun-17 10:00N 54°40' W 131°30'815.4
2018-Jun-17 09:30N 54°33' W 131°23'815.6
2018-Jun-17 09:00N 54°27' W 131°15'815.8
2018-Jun-17 08:30N 54°20' W 131°08'815.1
2018-Jun-17 08:00N 54°13' W 131°04'815.4
2018-Jun-17 07:30N 54°06' W 131°08'815.6
2018-Jun-17 07:01N 53°58' W 131°11'4224.1
2018-Jun-17 07:00N 54°00' W 131°06'1021.3 290 / 291022.310.8 11.0 11.0
2018-Jun-17 06:31N 53°50' W 131°12'815.4
2018-Jun-17 06:00N 53°43' W 131°10'816.3
2018-Jun-17 05:31N 53°35' W 131°07'816.2
2018-Jun-17 05:00N 53°27' W 131°04'816.0
2018-Jun-17 04:30N 53°19' W 130°59'816.2
2018-Jun-17 04:00N 53°12' W 130°53'816.1
2018-Jun-17 03:31N 53°05' W 130°47'815.9
2018-Jun-17 03:00N 52°58' W 130°42'815.5
2018-Jun-17 02:30N 52°51' W 130°36'815.9
2018-Jun-17 02:00N 52°44' W 130°30'815.9
2018-Jun-17 01:30N 52°37' W 130°24'816.0
2018-Jun-17 01:00N 52°30' W 130°18'816.1
2018-Jun-17 00:31N 52°23' W 130°12'816.1
2018-Jun-17 00:00N 52°15' W 130°05'816.2
2018-Jun-16 23:30N 52°08' W 129°59'816.0
2018-Jun-16 23:00N 52°01' W 129°54'815.9
2018-Jun-16 22:30N 51°54' W 129°47'815.8
2018-Jun-16 22:00N 51°48' W 129°38'816.0
2018-Jun-16 21:31N 51°44' W 129°28'815.9
2018-Jun-16 21:00N 51°39' W 129°17'5320.2
2018-Jun-16 21:00N 51°42' W 129°24'1326.4 330 / 301021.310.8 11.0 11.0
2018-Jun-16 20:30N 51°35' W 129°07'815.4
2018-Jun-16 20:01N 51°30' W 128°57'816.1
2018-Jun-16 19:30N 51°25' W 128°47'815.4
2018-Jun-16 19:00N 51°20' W 128°38'815.5
2018-Jun-16 18:31N 51°16' W 128°27'815.7
2018-Jun-16 18:01N 51°11' W 128°17'816.0
2018-Jun-16 17:30N 51°07' W 128°07'815.7
2018-Jun-16 17:00N 51°03' W 127°56'714.4
2018-Jun-16 16:31N 50°59' W 127°46'510.9
2018-Jun-16 16:00N 50°55' W 127°40'715.0
2018-Jun-16 15:30N 50°51' W 127°30'815.7
2018-Jun-16 15:00N 50°48' W 127°19'815.7
2018-Jun-16 14:30N 50°45' W 127°07'815.8
2018-Jun-16 14:00N 50°42' W 126°56'6214.3
2018-Jun-16 09:41N 50°19' W 125°25'417.5
2018-Jun-16 09:26N 50°15' W 125°23'614.9
2018-Jun-16 09:00N 50°09' W 125°21'612.1
2018-Jun-16 08:30N 50°04' W 125°15'713.5
2018-Jun-16 08:00N 49°58' W 125°10'816.7
2018-Jun-16 07:30N 49°52' W 125°01'816.8
2018-Jun-16 07:00N 49°46' W 124°52'2184.0
2018-Jun-16 07:00N 49°48' W 124°54'1021.3 300 / 251013.310.8 14.0 15.0
2018-Jun-16 06:30N 49°40' W 124°43'916.9
2018-Jun-16 06:00N 49°34' W 124°34'917.2
2018-Jun-16 05:30N 49°28' W 124°25'3016.7
2018-Jun-16 03:41N 49°20' W 123°40'516.9
2018-Jun-16 03:23N 49°19' W 123°33'717.4
2018-Jun-16 02:59N 49°19' W 123°22'816.7
2018-Jun-16 02:30N 49°19' W 123°10'3 5.1
2018-Jun-16 01:59N 49°17' W 123°06'0 0.0
2018-Jun-16 01:29N 49°17' W 123°06'0 0.0
2018-Jun-16 00:59N 49°17' W 123°06'0 0.0
2018-Jun-16 00:29N 49°17' W 123°06'0 0.0
2018-Jun-15 23:59N 49°17' W 123°06'0 0.0
2018-Jun-15 23:29N 49°17' W 123°06'0 0.0
2018-Jun-15 22:59N 49°17' W 123°06'0 0.0
2018-Jun-15 22:29N 49°17' W 123°06'0 0.0
2018-Jun-15 21:59N 49°17' W 123°06'0 0.0
2018-Jun-15 21:29N 49°17' W 123°06'0 0.0
2018-Jun-15 20:59N 49°17' W 123°06'0 0.0
2018-Jun-15 20:29N 49°17' W 123°06'0 0.0
2018-Jun-15 19:59N 49°17' W 123°06'0 0.0
2018-Jun-15 19:29N 49°17' W 123°06'0 0.0
2018-Jun-15 18:59N 49°17' W 123°06'0 0.0
2018-Jun-15 18:29N 49°17' W 123°06'0 0.0
2018-Jun-15 17:59N 49°17' W 123°06'0 0.0
2018-Jun-15 17:29N 49°17' W 123°06'0 0.0
2018-Jun-15 16:59N 49°17' W 123°06'0 0.0
2018-Jun-15 16:29N 49°17' W 123°06'0 0.0
2018-Jun-15 15:59N 49°17' W 123°06'0 0.0
2018-Jun-15 15:29N 49°17' W 123°06'0 0.0
2018-Jun-15 14:59N 49°17' W 123°06'0 0.0
2018-Jun-15 14:29N 49°17' W 123°06'0 0.0
2018-Jun-15 14:00N 49°17' W 123°06'0 0.4
2018-Jun-15 13:30N 49°17' W 123°06'2 4.4
2018-Jun-15 12:59N 49°19' W 123°09'3 6.4
2018-Jun-15 12:29N 49°19' W 123°14'20 7.1
2018-Jun-15 09:41N 49°19' W 123°44'610.7
2018-Jun-15 09:08N 49°21' W 123°53'21 9.6
2018-Jun-15 07:00N 49°24' W 124°24'1017.6 230 / 101015.310.8 14.0 14.0
2018-Jun-15 06:25N 49°32' W 124°33'410.8
2018-Jun-15 06:00N 49°36' W 124°38'510.4
2018-Jun-15 05:30N 49°39' W 124°43'510.4
2018-Jun-15 05:00N 49°43' W 124°48'510.7
2018-Jun-15 04:30N 49°47' W 124°54'611.4
2018-Jun-15 04:00N 49°52' W 124°60'510.9
2018-Jun-15 03:30N 49°55' W 125°06'510.7
2018-Jun-15 03:00N 49°59' W 125°12'611.4
2018-Jun-15 02:30N 50°04' W 125°15'612.6
2018-Jun-15 02:00N 50°09' W 125°22'1017.2
2018-Jun-15 01:26N 50°19' W 125°25'5617.0
2018-Jun-14 22:07N 50°39' W 126°48'318.1
2018-Jun-14 21:58N 50°40' W 126°51'919.2
2018-Jun-14 21:30N 50°44' W 127°04'1019.2
2018-Jun-14 21:00N 50°47' W 127°18'1018.9
2018-Jun-14 20:30N 50°51' W 127°32'1019.3
2018-Jun-14 20:00N 50°57' W 127°44'6378.4
2018-Jun-14 20:00N 50°54' W 127°36'1224.0 190 / 61017.3 5.4 11.0 11.0
2018-Jun-14 19:30N 51°00' W 127°52'1020.2
2018-Jun-14 19:00N 51°05' W 128°05'4306.8
2018-Jun-14 19:00N 51°06' W 128°12'713.8 110 / 101017.310.8 11.0 12.6
2018-Jun-14 18:31N 51°11' W 128°18'918.1
2018-Jun-14 18:00N 51°17' W 128°29'917.4
2018-Jun-14 17:31N 51°23' W 128°40'816.5
2018-Jun-14 17:01N 51°28' W 128°51'816.8
2018-Jun-14 16:31N 51°33' W 129°01'917.2
2018-Jun-14 16:00N 51°37' W 129°13'12518.2
2018-Jun-14 09:08N 53°24' W 131°03'855.8
2018-Jun-14 09:00N 53°18' W 130°54'10694.0 170 / 131017.010.8 10.0 11.0
2018-Jun-14 08:59N 53°26' W 131°04'918.5
2018-Jun-14 08:30N 53°35' W 131°07'918.4
2018-Jun-14 08:01N 53°44' W 131°10'918.2
2018-Jun-14 07:30N 53°53' W 131°13'918.7
2018-Jun-14 07:00N 54°02' W 131°10'1020.1
2018-Jun-14 06:30N 54°11' W 131°04'1019.5
2018-Jun-14 06:00N 54°21' W 131°08'1120.4
2018-Jun-14 05:29N 54°30' W 131°19'1610.8
2018-Jun-14 04:00N 54°42' W 131°36'113 5.6 170 / 381014.7 2.2 10.0 12.2
2018-Jun-13 08:00N 56°06' W 133°48'6713.4 090 / 201017.0 5.4 11.0 11.0
2018-Jun-13 03:00N 57°06' W 134°42'67 5.0 200 / 51012.010.8 11.0 10.0
2018-Jun-12 13:39N 58°09' W 135°26'1 5.7
2018-Jun-12 13:27N 58°09' W 135°24'34 7.7
2018-Jun-12 09:00N 58°42' W 135°06'   250 / 51021.0 5.4 11.0 11.0

Dump ship's entire track history